createdAt,value
2023-05-05T00:00:25.743Z,15.00
2023-05-05T00:02:54.101Z,15.00
2023-05-05T00:05:23.997Z,14.90
2023-05-05T00:07:52.336Z,14.90
2023-05-05T00:10:22.159Z,14.90
2023-05-05T00:12:50.752Z,14.90
2023-05-05T00:15:19.296Z,14.80
2023-05-05T00:17:47.666Z,14.80
2023-05-05T00:20:16.030Z,14.80
2023-05-05T00:22:44.318Z,14.80
2023-05-05T00:25:12.670Z,14.70
2023-05-05T00:27:42.335Z,14.80
2023-05-05T00:30:11.653Z,14.60
2023-05-05T00:32:39.989Z,14.60
2023-05-05T00:35:09.510Z,14.50
2023-05-05T00:37:37.807Z,14.50
2023-05-05T00:40:07.929Z,14.50
2023-05-05T00:42:43.020Z,14.50
2023-05-05T00:45:12.817Z,14.50
2023-05-05T00:47:43.348Z,14.50
2023-05-05T00:50:21.697Z,14.40
2023-05-05T00:52:50.528Z,14.40
2023-05-05T00:55:19.662Z,14.40
2023-05-05T00:57:50.260Z,14.30
2023-05-05T01:00:19.036Z,14.30
2023-05-05T01:02:47.411Z,14.30
2023-05-05T01:05:17.281Z,14.30
2023-05-05T01:08:20.515Z,14.20
2023-05-05T01:10:59.014Z,14.20
2023-05-05T01:13:38.857Z,14.10
2023-05-05T01:16:14.061Z,14.10
2023-05-05T01:18:51.212Z,14.10
2023-05-05T01:21:27.128Z,14.30
2023-05-05T01:24:34.371Z,14.00
2023-05-05T01:27:38.298Z,14.10
2023-05-05T01:30:35.073Z,13.90
2023-05-05T01:33:10.318Z,13.90
2023-05-05T01:35:43.721Z,13.80
2023-05-05T01:38:18.408Z,13.80
2023-05-05T01:40:51.692Z,13.80
2023-05-05T01:43:23.830Z,13.80
2023-05-05T01:45:54.975Z,13.70
2023-05-05T01:48:27.215Z,13.60
2023-05-05T01:50:56.097Z,13.60
2023-05-05T01:53:26.752Z,13.50
2023-05-05T01:55:56.390Z,13.60
2023-05-05T01:58:25.722Z,13.50
2023-05-05T02:00:58.409Z,13.50
2023-05-05T02:03:30.131Z,13.50
2023-05-05T02:06:01.841Z,13.50
2023-05-05T02:08:32.180Z,13.40
2023-05-05T02:11:01.158Z,13.40
2023-05-05T02:13:32.401Z,13.40
2023-05-05T02:16:01.642Z,13.40
2023-05-05T02:18:35.936Z,13.40
2023-05-05T02:21:05.137Z,13.40
2023-05-05T02:23:34.305Z,13.30
2023-05-05T02:26:08.203Z,13.30
2023-05-05T02:28:42.482Z,13.30
2023-05-05T02:31:13.519Z,13.30
2023-05-05T02:33:45.664Z,13.30
2023-05-05T02:36:20.340Z,13.20
2023-05-05T02:39:01.225Z,13.20
2023-05-05T02:41:34.784Z,13.20
2023-05-05T02:44:09.595Z,13.20
2023-05-05T02:46:39.822Z,13.20
2023-05-05T02:49:09.683Z,13.30
2023-05-05T02:51:39.622Z,13.10
2023-05-05T02:54:15.855Z,13.10
2023-05-05T02:56:50.157Z,13.10
2023-05-05T02:59:28.732Z,13.10
2023-05-05T03:02:11.911Z,13.10
2023-05-05T03:04:46.915Z,13.00
2023-05-05T03:07:22.412Z,13.10
2023-05-05T03:09:58.405Z,13.00
2023-05-05T03:12:37.698Z,12.90
2023-05-05T03:15:16.590Z,12.90
2023-05-05T03:17:47.386Z,12.80
2023-05-05T03:20:18.071Z,12.80
2023-05-05T03:22:49.935Z,12.80
2023-05-05T03:25:18.352Z,12.70
2023-05-05T03:27:46.746Z,12.70
2023-05-05T03:30:20.291Z,12.70
2023-05-05T03:32:51.694Z,12.70
2023-05-05T03:35:21.860Z,12.60
2023-05-05T03:37:50.304Z,12.60
2023-05-05T03:40:20.177Z,12.70
2023-05-05T03:42:49.579Z,12.50
2023-05-05T03:45:19.044Z,12.50
2023-05-05T03:47:47.458Z,12.50
2023-05-05T03:50:16.464Z,12.40
2023-05-05T03:52:46.621Z,12.40
2023-05-05T03:55:15.150Z,12.40
2023-05-05T03:57:43.452Z,12.40
2023-05-05T04:00:13.327Z,12.30
2023-05-05T04:02:46.674Z,12.30
2023-05-05T04:05:18.351Z,12.20
2023-05-05T04:07:48.051Z,12.20
2023-05-05T04:10:17.136Z,12.20
2023-05-05T04:12:46.360Z,12.20
2023-05-05T04:15:14.821Z,12.10
2023-05-05T04:17:43.409Z,12.10
2023-05-05T04:20:12.564Z,12.10
2023-05-05T04:22:41.685Z,12.10
2023-05-05T04:25:11.942Z,12.10
2023-05-05T04:27:40.328Z,12.00
2023-05-05T04:30:10.809Z,12.00
2023-05-05T04:32:41.498Z,12.00
2023-05-05T04:35:11.092Z,12.00
2023-05-05T04:37:39.550Z,11.90
2023-05-05T04:40:11.629Z,11.90
2023-05-05T04:42:41.210Z,11.90
2023-05-05T04:45:11.145Z,11.90
2023-05-05T04:47:40.817Z,11.90
2023-05-05T04:50:11.404Z,11.90
2023-05-05T04:52:40.497Z,11.90
2023-05-05T04:55:12.448Z,11.90
2023-05-05T04:57:40.809Z,11.90
2023-05-05T05:00:11.323Z,11.90
2023-05-05T05:02:39.783Z,11.90
2023-05-05T05:05:09.645Z,11.90
2023-05-05T05:07:38.300Z,11.90
2023-05-05T05:10:08.290Z,11.90
2023-05-05T05:12:38.637Z,12.00
2023-05-05T05:15:08.721Z,12.00
2023-05-05T05:17:37.052Z,12.00
2023-05-05T05:20:07.506Z,12.00
2023-05-05T05:22:38.338Z,12.00
2023-05-05T05:25:10.319Z,12.00
2023-05-05T05:27:40.092Z,12.00
2023-05-05T05:30:10.223Z,11.90
2023-05-05T05:32:40.079Z,12.00
2023-05-05T05:35:09.705Z,12.00
2023-05-05T05:37:38.086Z,11.90
2023-05-05T05:40:08.812Z,11.90
2023-05-05T05:42:41.286Z,11.90
2023-05-05T05:45:11.266Z,12.00
2023-05-05T05:47:40.392Z,12.00
2023-05-05T05:50:10.078Z,12.00
2023-05-05T05:52:38.647Z,12.00
2023-05-05T05:55:09.909Z,12.00
2023-05-05T05:57:41.312Z,12.00
2023-05-05T06:00:13.384Z,13.10
2023-05-05T06:02:43.867Z,12.10
2023-05-05T06:05:16.055Z,12.10
2023-05-05T06:07:46.512Z,12.20
2023-05-05T06:10:26.551Z,12.20
2023-05-05T06:13:02.052Z,12.20
2023-05-05T06:15:32.053Z,12.30
2023-05-05T06:18:02.270Z,12.30
2023-05-05T06:20:30.708Z,12.40
2023-05-05T06:22:59.277Z,12.50
2023-05-05T06:25:29.498Z,12.50
2023-05-05T06:27:57.802Z,12.60
2023-05-05T06:30:27.578Z,12.60
2023-05-05T06:32:55.897Z,12.90
2023-05-05T06:35:24.758Z,12.70
2023-05-05T06:37:53.158Z,12.80
2023-05-05T06:40:21.511Z,12.90
2023-05-05T06:42:49.849Z,12.90
2023-05-05T06:45:23.667Z,13.00
2023-05-05T06:47:53.544Z,13.10
2023-05-05T06:50:22.060Z,13.20
2023-05-05T06:52:50.425Z,13.30
2023-05-05T06:55:18.716Z,13.60
2023-05-05T06:57:47.084Z,13.50
2023-05-05T07:00:17.473Z,13.60
2023-05-05T07:02:47.601Z,13.70
2023-05-05T07:05:17.533Z,13.80
2023-05-05T07:07:53.677Z,13.90
2023-05-05T07:10:23.904Z,14.00
2023-05-05T07:12:54.913Z,14.10
2023-05-05T07:15:28.065Z,14.20
2023-05-05T07:17:58.244Z,14.30
2023-05-05T07:20:29.045Z,14.40
2023-05-05T07:22:57.341Z,14.50
2023-05-05T07:25:25.668Z,14.70
2023-05-05T07:27:54.122Z,14.80
2023-05-05T07:30:22.602Z,14.90
2023-05-05T07:32:51.513Z,15.10
2023-05-05T07:35:19.909Z,15.20
2023-05-05T07:37:49.611Z,15.50
2023-05-05T07:40:18.046Z,15.60
2023-05-05T07:42:47.468Z,16.00
2023-05-05T07:45:15.822Z,16.10
2023-05-05T07:47:44.220Z,16.30
2023-05-05T07:50:12.774Z,16.60
2023-05-05T07:52:47.939Z,16.80
2023-05-05T07:55:21.741Z,17.10
2023-05-05T07:57:50.721Z,17.40
2023-05-05T08:00:21.715Z,17.70
2023-05-05T08:02:50.329Z,18.00
2023-05-05T08:05:18.971Z,18.30
2023-05-05T08:07:47.357Z,18.60
2023-05-05T08:10:15.723Z,18.90
2023-05-05T08:12:45.543Z,19.00
2023-05-05T08:15:14.160Z,19.40
2023-05-05T08:17:48.075Z,19.60
2023-05-05T08:20:16.968Z,19.80
2023-05-05T08:22:45.824Z,20.10
2023-05-05T08:25:15.179Z,20.20
2023-05-05T08:27:46.023Z,20.50
2023-05-05T08:30:17.188Z,20.70
2023-05-05T08:32:45.652Z,20.90
2023-05-05T08:35:14.309Z,21.00
2023-05-05T08:37:42.855Z,21.30
2023-05-05T08:40:15.050Z,21.40
2023-05-05T08:42:45.836Z,21.50
2023-05-05T08:45:14.230Z,21.70
2023-05-05T08:47:43.424Z,21.80
2023-05-05T08:50:13.170Z,21.90
2023-05-05T08:52:44.890Z,22.00
2023-05-05T08:55:25.678Z,22.20
2023-05-05T08:57:57.769Z,22.30
2023-05-05T09:00:27.664Z,22.40
2023-05-05T09:02:58.868Z,22.60
2023-05-05T09:05:28.243Z,22.80
2023-05-05T09:07:56.647Z,22.90
2023-05-05T09:10:30.176Z,23.00
2023-05-05T09:13:00.128Z,23.20
2023-05-05T09:15:29.045Z,23.30
2023-05-05T09:17:58.260Z,23.50
2023-05-05T09:20:34.982Z,23.60
2023-05-05T09:23:10.359Z,23.90
2023-05-05T09:25:38.990Z,24.00
2023-05-05T09:28:13.253Z,24.20
2023-05-05T09:30:43.774Z,24.40
2023-05-05T09:33:12.365Z,24.60
2023-05-05T09:35:52.423Z,24.80
2023-05-05T09:38:22.291Z,24.90
2023-05-05T09:40:52.270Z,25.10
2023-05-05T09:43:24.686Z,25.20
2023-05-05T09:45:53.156Z,25.40
2023-05-05T09:48:26.630Z,25.50
2023-05-05T09:50:55.959Z,25.60
2023-05-05T09:53:25.444Z,25.80
2023-05-05T09:55:55.706Z,25.90
2023-05-05T09:58:27.308Z,26.10
2023-05-05T10:00:57.564Z,26.20
2023-05-05T10:03:26.688Z,26.30
2023-05-05T10:05:56.963Z,26.40
2023-05-05T10:08:27.036Z,26.50
2023-05-05T10:10:57.509Z,26.70
2023-05-05T10:13:27.848Z,26.80
2023-05-05T10:15:58.348Z,27.00
2023-05-05T10:18:30.179Z,27.10
2023-05-05T10:21:00.808Z,27.30
2023-05-05T10:23:37.345Z,27.40
2023-05-05T10:26:08.842Z,27.60
2023-05-05T10:28:45.875Z,27.70
2023-05-05T10:31:26.365Z,27.80
2023-05-05T10:34:01.731Z,28.00
2023-05-05T10:36:31.782Z,28.10
2023-05-05T10:39:02.153Z,28.20
2023-05-05T10:41:31.932Z,28.40
2023-05-05T10:44:04.424Z,28.50
2023-05-05T10:46:33.434Z,28.60
2023-05-05T10:49:13.661Z,28.70
2023-05-05T10:51:55.555Z,28.80
2023-05-05T10:54:34.275Z,28.90
2023-05-05T10:57:04.988Z,29.00
2023-05-05T10:59:43.750Z,29.10
2023-05-05T11:02:27.234Z,29.20
2023-05-05T11:05:17.625Z,29.30
2023-05-05T11:07:47.253Z,29.40
2023-05-05T11:10:17.929Z,29.50
2023-05-05T11:13:20.701Z,29.50
2023-05-05T11:15:52.671Z,29.60
2023-05-05T11:18:37.598Z,29.70
2023-05-05T11:21:17.609Z,29.70
2023-05-05T11:23:51.220Z,29.80
2023-05-05T11:26:49.862Z,29.80
2023-05-05T11:29:18.524Z,29.90
2023-05-05T11:32:15.621Z,30.00
2023-05-05T11:34:50.906Z,30.10
2023-05-05T11:37:19.364Z,30.20
2023-05-05T11:40:04.008Z,30.30
2023-05-05T11:42:32.608Z,30.40
2023-05-05T11:45:01.329Z,30.40
2023-05-05T11:47:32.684Z,30.50
2023-05-05T11:50:21.774Z,30.60
2023-05-05T11:52:50.351Z,30.70
2023-05-05T11:55:25.528Z,30.70
2023-05-05T11:57:53.914Z,30.70
2023-05-05T12:00:34.028Z,30.70
2023-05-05T12:03:03.864Z,30.70
2023-05-05T12:05:34.846Z,30.70
2023-05-05T12:08:05.099Z,30.80
2023-05-05T12:10:33.583Z,30.80
2023-05-05T12:13:01.938Z,30.80
2023-05-05T12:15:32.142Z,30.80
2023-05-05T12:18:02.719Z,30.80
2023-05-05T12:20:34.560Z,30.80
2023-05-05T12:23:04.855Z,30.80
2023-05-05T12:25:38.405Z,30.70
2023-05-05T12:28:08.358Z,30.70
2023-05-05T12:30:37.364Z,30.60
2023-05-05T12:33:07.897Z,30.60
2023-05-05T12:35:38.146Z,30.50
2023-05-05T12:38:06.594Z,30.50
2023-05-05T12:40:46.671Z,30.50
2023-05-05T12:43:29.978Z,30.50
2023-05-05T12:46:07.766Z,30.40
2023-05-05T12:48:38.110Z,30.40
2023-05-05T12:51:20.525Z,30.40
2023-05-05T12:53:50.629Z,30.40
2023-05-05T12:56:32.750Z,30.40
2023-05-05T12:59:01.525Z,30.30
2023-05-05T13:01:30.190Z,30.30
2023-05-05T13:04:12.913Z,30.30
2023-05-05T13:06:44.259Z,30.20
2023-05-05T13:09:24.705Z,30.20
2023-05-05T13:11:53.729Z,30.10
2023-05-05T13:14:22.565Z,30.10
2023-05-05T13:16:51.101Z,30.10
2023-05-05T13:19:19.511Z,30.10
2023-05-05T13:21:49.231Z,30.10
2023-05-05T13:26:48.932Z,30.10
2023-05-05T13:29:17.545Z,30.20
2023-05-05T13:31:46.757Z,30.20
2023-05-05T13:34:15.290Z,30.20
2023-05-05T13:36:43.617Z,30.20
2023-05-05T13:39:13.724Z,30.20
2023-05-05T13:41:52.120Z,30.30
2023-05-05T13:44:20.711Z,30.30
2023-05-05T13:46:49.296Z,30.30
2023-05-05T13:49:18.055Z,30.30
2023-05-05T13:51:47.182Z,30.30
2023-05-05T13:54:17.103Z,30.30
2023-05-05T13:56:45.602Z,30.30
2023-05-05T13:59:14.009Z,30.30
2023-05-05T14:01:42.654Z,30.20
2023-05-05T14:04:11.140Z,30.20
2023-05-05T14:06:39.589Z,30.10
2023-05-05T14:09:08.221Z,30.10
2023-05-05T14:11:37.940Z,30.10
2023-05-05T14:14:06.285Z,30.00
2023-05-05T14:16:34.854Z,30.00
2023-05-05T14:19:03.369Z,29.90
2023-05-05T14:21:32.780Z,29.80
2023-05-05T14:24:01.157Z,29.80
2023-05-05T14:26:29.574Z,29.80
2023-05-05T14:28:59.252Z,29.80
2023-05-05T14:31:28.641Z,29.80
2023-05-05T14:33:56.999Z,29.80
2023-05-05T14:36:25.426Z,29.80
2023-05-05T14:38:53.796Z,29.80
2023-05-05T14:41:22.400Z,29.80
2023-05-05T14:43:50.712Z,29.80
2023-05-05T14:46:20.505Z,29.80
2023-05-05T14:48:48.885Z,29.70
2023-05-05T14:51:17.247Z,29.60
2023-05-05T14:53:45.588Z,29.60
2023-05-05T14:56:13.920Z,29.50
2023-05-05T14:58:42.367Z,29.40
2023-05-05T15:01:10.879Z,29.30
2023-05-05T15:03:40.855Z,29.20
2023-05-05T15:06:09.716Z,29.20
2023-05-05T15:08:39.074Z,29.10
2023-05-05T15:11:07.639Z,29.00
2023-05-05T15:13:38.594Z,28.90
2023-05-05T15:16:07.963Z,28.90
2023-05-05T15:18:36.404Z,28.70
2023-05-05T15:21:06.534Z,28.70
2023-05-05T15:23:35.080Z,28.60
2023-05-05T15:26:03.919Z,28.60
2023-05-05T15:28:32.336Z,28.50
2023-05-05T15:31:02.679Z,28.40
2023-05-05T15:33:31.837Z,28.30
2023-05-05T15:36:00.407Z,28.20
2023-05-05T15:38:31.302Z,28.20
2023-05-05T15:41:00.068Z,28.10
2023-05-05T15:43:28.735Z,28.00
2023-05-05T15:45:57.142Z,28.00
2023-05-05T15:48:25.467Z,27.90
2023-05-05T15:50:53.855Z,27.90
2023-05-05T15:53:22.218Z,27.80
2023-05-05T15:55:51.976Z,27.70
2023-05-05T15:58:20.327Z,27.70
2023-05-05T16:00:48.917Z,27.60
2023-05-05T16:03:17.840Z,27.60
2023-05-05T16:05:47.216Z,27.50
2023-05-05T16:08:15.647Z,27.50
2023-05-05T16:10:43.963Z,27.40
2023-05-05T16:13:14.175Z,27.40
2023-05-05T16:15:42.623Z,27.30
2023-05-05T16:18:11.194Z,27.30
2023-05-05T16:20:39.546Z,27.30
2023-05-05T16:23:08.101Z,27.10
2023-05-05T16:25:36.427Z,27.10
2023-05-05T16:28:05.381Z,27.00
2023-05-05T16:30:35.392Z,26.90
2023-05-05T16:33:03.732Z,26.80
2023-05-05T16:35:32.148Z,26.80
2023-05-05T16:38:00.576Z,26.70
2023-05-05T16:40:29.301Z,26.70
2023-05-05T16:42:57.699Z,26.60
2023-05-05T16:45:26.157Z,26.50
2023-05-05T16:47:56.300Z,26.40
2023-05-05T16:50:24.814Z,26.40
2023-05-05T16:52:53.155Z,26.30
2023-05-05T16:55:21.918Z,26.20
2023-05-05T16:57:50.309Z,26.20
2023-05-05T17:00:19.093Z,26.10
2023-05-05T17:02:47.592Z,26.00
2023-05-05T17:05:18.513Z,25.90
2023-05-05T17:07:48.271Z,25.80
2023-05-05T17:10:16.923Z,25.80
2023-05-05T17:12:45.296Z,25.70
2023-05-05T17:15:13.648Z,25.60
2023-05-05T17:17:43.218Z,25.60
2023-05-05T17:20:13.183Z,25.50
2023-05-05T17:22:42.921Z,25.50
2023-05-05T17:25:11.775Z,25.40
2023-05-05T17:27:40.203Z,25.30
2023-05-05T17:30:10.381Z,25.20
2023-05-05T17:32:38.942Z,25.10
2023-05-05T17:35:08.475Z,25.00
2023-05-05T17:37:37.262Z,25.00
2023-05-05T17:40:08.764Z,24.90
2023-05-05T17:42:38.315Z,24.90
2023-05-05T17:45:08.564Z,24.80
2023-05-05T17:47:37.512Z,24.70
2023-05-05T17:50:07.319Z,24.60
2023-05-05T17:52:35.643Z,24.50
2023-05-05T17:55:04.001Z,24.50
2023-05-05T17:57:33.726Z,24.30
2023-05-05T18:00:05.562Z,24.40
2023-05-05T18:02:40.948Z,24.20
2023-05-05T18:05:10.877Z,24.10
2023-05-05T18:07:41.161Z,24.00
2023-05-05T18:10:11.162Z,23.90
2023-05-05T18:12:40.905Z,23.90
2023-05-05T18:15:10.588Z,23.80
2023-05-05T18:17:39.232Z,23.70
2023-05-05T18:20:09.362Z,23.60
2023-05-05T18:22:37.744Z,23.50
2023-05-05T18:25:08.357Z,23.50
2023-05-05T18:27:37.441Z,23.40
2023-05-05T18:30:09.450Z,23.40
2023-05-05T18:32:39.023Z,23.30
2023-05-05T18:35:09.386Z,23.30
2023-05-05T18:37:38.112Z,23.20
2023-05-05T18:40:10.116Z,23.10
2023-05-05T18:42:38.845Z,23.10
2023-05-05T18:45:12.206Z,23.00
2023-05-05T18:47:41.533Z,23.00
2023-05-05T18:50:11.204Z,22.90
2023-05-05T18:52:40.484Z,22.90
2023-05-05T18:55:10.752Z,22.70
2023-05-05T18:57:40.157Z,22.80
2023-05-05T19:00:12.375Z,22.60
2023-05-05T19:02:41.014Z,22.50
2023-05-05T19:05:10.919Z,22.50
2023-05-05T19:07:39.576Z,22.40
2023-05-05T19:10:10.092Z,22.30
2023-05-05T19:12:38.683Z,22.20
2023-05-05T19:15:10.174Z,22.10
2023-05-05T19:17:39.221Z,21.90
2023-05-05T19:20:11.032Z,21.80
2023-05-05T19:22:39.912Z,21.70
2023-05-05T19:25:09.622Z,21.60
2023-05-05T19:27:38.588Z,21.60
2023-05-05T19:30:10.782Z,21.50
2023-05-05T19:32:39.494Z,21.40
2023-05-05T19:35:10.565Z,21.30
2023-05-05T19:37:39.366Z,21.20
2023-05-05T19:40:11.744Z,21.20
2023-05-05T19:42:42.035Z,21.10
2023-05-05T19:45:13.772Z,21.00
2023-05-05T19:47:43.236Z,20.90
2023-05-05T19:50:12.549Z,20.90
2023-05-05T19:52:42.431Z,20.80
2023-05-05T19:55:13.906Z,20.70
2023-05-05T19:57:45.955Z,20.70
2023-05-05T20:00:20.218Z,20.60
2023-05-05T20:02:51.441Z,20.60
2023-05-05T20:05:22.943Z,20.50
2023-05-05T20:07:53.266Z,20.40
2023-05-05T20:10:23.321Z,20.40
2023-05-05T20:12:54.246Z,20.30
2023-05-05T20:15:26.820Z,20.30
2023-05-05T20:17:57.768Z,20.30
2023-05-05T20:20:28.413Z,20.20
2023-05-05T20:23:01.466Z,20.20
2023-05-05T20:25:31.383Z,20.30
2023-05-05T20:28:01.768Z,20.10
2023-05-05T20:30:36.927Z,20.10
2023-05-05T20:33:07.826Z,20.00
2023-05-05T20:35:38.371Z,20.00
2023-05-05T20:38:10.351Z,20.00
2023-05-05T20:40:40.677Z,20.00
2023-05-05T20:43:13.799Z,19.90
2023-05-05T20:45:44.746Z,19.90
2023-05-05T20:48:13.700Z,19.70
2023-05-05T20:50:43.188Z,19.80
2023-05-05T20:53:13.937Z,19.90
2023-05-05T20:55:45.918Z,19.90
2023-05-05T20:58:22.945Z,19.80
2023-05-05T21:00:58.046Z,19.70
2023-05-05T21:03:57.492Z,19.90
2023-05-05T21:06:28.966Z,19.90
2023-05-05T21:08:59.310Z,19.70
2023-05-05T21:11:29.147Z,19.90
2023-05-05T21:13:58.171Z,19.90
2023-05-05T21:16:30.461Z,19.80
2023-05-05T21:22:16.897Z,19.80
2023-05-05T21:24:51.389Z,19.80
2023-05-05T21:27:25.508Z,19.70
2023-05-05T21:39:45.037Z,19.70
2023-05-05T21:42:14.969Z,20.50
2023-05-05T21:44:43.901Z,19.60
2023-05-05T21:47:12.507Z,19.70
2023-05-05T21:49:41.746Z,19.70
2023-05-05T21:52:10.434Z,19.70
2023-05-05T21:54:39.858Z,19.70
2023-05-05T21:57:10.523Z,19.70
2023-05-05T21:59:39.718Z,19.70
2023-05-05T22:02:09.388Z,19.70
2023-05-05T22:04:39.266Z,19.60
2023-05-05T22:07:08.442Z,19.60
2023-05-05T22:09:37.341Z,19.50
2023-05-05T22:12:10.004Z,19.70
2023-05-05T22:14:39.051Z,19.50
2023-05-05T22:17:07.838Z,19.30
2023-05-05T22:19:36.851Z,19.70
2023-05-05T22:22:05.753Z,19.40
2023-05-05T22:24:34.568Z,19.40
2023-05-05T22:27:07.282Z,19.40
2023-05-05T22:29:39.838Z,19.30
2023-05-05T22:32:10.369Z,19.30
2023-05-05T22:34:39.630Z,19.20
2023-05-05T22:37:08.611Z,19.30
2023-05-05T22:39:37.771Z,19.30
2023-05-05T22:42:07.254Z,19.40
2023-05-05T22:44:37.287Z,19.40
2023-05-05T22:47:07.023Z,19.50
2023-05-05T22:49:35.620Z,19.30
2023-05-05T22:52:04.111Z,19.40
2023-05-05T22:54:33.072Z,19.30
2023-05-05T22:57:02.335Z,19.30
2023-05-05T22:59:30.748Z,19.30
2023-05-05T23:02:00.420Z,19.60
2023-05-05T23:04:28.858Z,19.50
2023-05-05T23:06:57.555Z,19.30
2023-05-05T23:09:26.026Z,19.30
2023-05-05T23:11:54.457Z,19.50
2023-05-05T23:14:22.901Z,19.30
2023-05-05T23:16:51.465Z,19.50
2023-05-05T23:19:48.824Z,19.30
2023-05-05T23:22:17.537Z,19.20
2023-05-05T23:24:45.911Z,19.20
2023-05-05T23:27:14.372Z,19.30
2023-05-05T23:29:42.718Z,19.50
2023-05-05T23:32:11.120Z,19.20
2023-05-05T23:34:39.437Z,19.20
2023-05-05T23:37:09.129Z,19.40
2023-05-05T23:39:37.542Z,19.20
2023-05-05T23:42:06.009Z,19.20
2023-05-05T23:44:34.359Z,19.20
2023-05-05T23:47:02.699Z,19.40
2023-05-05T23:49:31.073Z,19.30
2023-05-05T23:51:59.595Z,19.30
2023-05-05T23:54:29.323Z,19.20
2023-05-05T23:56:58.735Z,19.40
2023-05-05T23:59:27.382Z,19.20
